createdAt,value
2019-01-12T00:02:53.905Z,101297.52
2019-01-12T00:07:57.433Z,101296.12
2019-01-12T00:13:00.881Z,101299.68
2019-01-12T00:18:04.618Z,101297.84
2019-01-12T00:23:08.062Z,101303.88
2019-01-12T00:28:11.527Z,101301.56
2019-01-12T00:33:15.008Z,101300.71
2019-01-12T00:38:18.464Z,101303.78
2019-01-12T00:43:21.907Z,101303.71
2019-01-12T00:48:25.363Z,101303.37
2019-01-12T00:53:28.994Z,101298.94
2019-01-12T00:58:32.776Z,101296.83
2019-01-12T01:03:38.193Z,101298.53
2019-01-12T01:08:41.339Z,101292.02
2019-01-12T01:13:44.862Z,101293.32
2019-01-12T01:18:48.403Z,101291.52
2019-01-12T01:23:51.915Z,101294.52
2019-01-12T01:28:55.355Z,101293.17
2019-01-12T01:33:58.824Z,101301.86
2019-01-12T01:39:02.259Z,101300.56
2019-01-12T01:44:06.082Z,101301.44
2019-01-12T01:49:09.684Z,101299.73
2019-01-12T01:54:13.289Z,101297.20
2019-01-12T01:59:16.723Z,101297.11
2019-01-12T02:04:20.356Z,101294.45
2019-01-12T02:09:23.799Z,101287.55
2019-01-12T02:14:27.267Z,101286.70
2019-01-12T02:19:30.699Z,101284.09
2019-01-12T02:24:34.142Z,101276.30
2019-01-12T02:29:37.597Z,101279.69
2019-01-12T02:34:41.457Z,101276.69
2019-01-12T02:39:44.991Z,101280.18
2019-01-12T02:44:48.410Z,101267.17
2019-01-12T02:49:51.950Z,101252.94
2019-01-12T02:54:56.016Z,101256.30
2019-01-12T02:59:59.739Z,101249.02
2019-01-12T03:05:03.608Z,101250.73
2019-01-12T03:10:10.060Z,101246.42
2019-01-12T03:15:17.538Z,101251.98
2019-01-12T03:20:21.056Z,101236.89
2019-01-12T03:25:24.559Z,101230.41
2019-01-12T03:30:28.000Z,101218.33
2019-01-12T03:35:31.424Z,101222.62
2019-01-12T03:40:35.047Z,101210.91
2019-01-12T03:45:41.337Z,101204.44
2019-01-12T03:50:44.758Z,101208.84
2019-01-12T03:55:48.204Z,101202.85
2019-01-12T04:00:51.658Z,101195.87
2019-01-12T04:05:55.151Z,101197.19
2019-01-12T04:10:58.649Z,101189.41
2019-01-12T04:16:02.433Z,101188.51
2019-01-12T04:21:06.158Z,101185.41
2019-01-12T04:26:09.634Z,101181.19
2019-01-12T04:31:13.251Z,101183.25
2019-01-12T04:36:16.782Z,101175.86
2019-01-12T04:41:20.228Z,101172.82
2019-01-12T04:46:23.706Z,101178.93
2019-01-12T04:51:27.544Z,101174.20
2019-01-12T04:56:30.986Z,101173.37
2019-01-12T05:01:34.431Z,101172.41
2019-01-12T05:06:37.895Z,101173.66
2019-01-12T05:11:41.329Z,101175.93
2019-01-12T05:16:44.759Z,101173.77
2019-01-12T05:21:48.281Z,101166.88
2019-01-12T05:26:51.767Z,101171.10
2019-01-12T05:31:55.573Z,101168.91
2019-01-12T05:36:59.034Z,101174.89
2019-01-12T05:42:02.796Z,101175.73
2019-01-12T05:47:06.241Z,101168.00
2019-01-12T05:52:09.687Z,101172.37
2019-01-12T05:57:13.127Z,101165.42
2019-01-12T06:02:16.611Z,101162.83
2019-01-12T06:07:20.080Z,101158.58
2019-01-12T06:12:23.573Z,101165.48
2019-01-12T06:17:27.468Z,101161.16
2019-01-12T06:22:30.925Z,101155.98
2019-01-12T06:27:34.381Z,101152.48
2019-01-12T06:32:37.837Z,101141.69
2019-01-12T06:37:41.266Z,101142.95
2019-01-12T06:42:44.769Z,101133.83
2019-01-12T06:47:48.212Z,101139.34
2019-01-12T06:52:51.658Z,101138.88
2019-01-12T06:57:55.084Z,101134.03
2019-01-12T07:02:58.526Z,101126.20
2019-01-12T07:08:01.980Z,101120.68
2019-01-12T07:13:05.421Z,101105.56
2019-01-12T07:18:09.116Z,101108.97
2019-01-12T07:23:12.560Z,101093.08
2019-01-12T07:28:16.014Z,101086.20
2019-01-12T07:33:19.452Z,101081.89
2019-01-12T07:38:22.887Z,101072.73
2019-01-12T07:43:26.330Z,101073.23
2019-01-12T07:48:29.802Z,101052.48
2019-01-12T07:53:33.230Z,101052.89
2019-01-12T07:58:36.690Z,101053.33
2019-01-12T08:03:40.194Z,101034.72
2019-01-12T08:08:43.633Z,101032.13
2019-01-12T08:13:47.091Z,101039.54
2019-01-12T08:18:50.522Z,101022.29
2019-01-12T08:23:53.977Z,101018.84
2019-01-12T08:28:57.410Z,101014.17
2019-01-12T08:34:00.863Z,101009.51
2019-01-12T08:39:06.390Z,101000.88
2019-01-12T08:44:10.125Z,100984.44
2019-01-12T08:49:13.574Z,100976.22
2019-01-12T08:54:17.034Z,100976.59
2019-01-12T08:59:22.122Z,100983.48
2019-01-12T09:04:25.544Z,100993.91
2019-01-12T09:09:28.977Z,100993.94
2019-01-12T09:14:32.417Z,100968.06
2019-01-12T09:19:35.852Z,100966.77
2019-01-12T09:24:39.288Z,100950.45
2019-01-12T09:29:42.732Z,100940.53
2019-01-12T09:34:46.246Z,100936.58
2019-01-12T09:39:49.807Z,100923.20
2019-01-12T09:44:53.183Z,100923.72
2019-01-12T09:49:56.616Z,100917.23
2019-01-12T09:55:00.042Z,100912.13
2019-01-12T10:00:05.739Z,100902.64
2019-01-12T10:05:09.603Z,100890.20
2019-01-12T10:10:19.832Z,100888.42
2019-01-12T10:15:23.491Z,100884.96
2019-01-12T10:20:29.990Z,100873.75
2019-01-12T10:25:33.504Z,100863.36
2019-01-12T10:30:36.938Z,100842.70
2019-01-12T10:35:40.387Z,100826.31
2019-01-12T10:40:44.451Z,100816.45
2019-01-12T10:45:47.883Z,100798.67
2019-01-12T10:50:51.336Z,100786.22
2019-01-12T10:55:54.784Z,100785.41
2019-01-12T11:00:58.226Z,100768.59
2019-01-12T11:06:01.679Z,100771.17
2019-01-12T11:11:05.678Z,100755.60
2019-01-12T11:16:09.117Z,100734.95
2019-01-12T11:21:12.651Z,100723.25
2019-01-12T11:26:16.101Z,100712.52
2019-01-12T11:31:20.014Z,100702.56
2019-01-12T11:36:23.576Z,100688.37
2019-01-12T11:41:26.999Z,100686.22
2019-01-12T11:46:30.454Z,100662.06
2019-01-12T11:51:33.970Z,100653.91
2019-01-12T11:56:37.400Z,100634.07
2019-01-12T12:01:40.836Z,100622.90
2019-01-12T12:06:44.292Z,100622.00
2019-01-12T12:11:47.738Z,100605.64
2019-01-12T12:16:51.189Z,100597.45
2019-01-12T12:21:54.637Z,100584.08
2019-01-12T12:26:58.079Z,100566.81
2019-01-12T12:32:01.524Z,100562.08
2019-01-12T12:37:04.970Z,100548.70
2019-01-12T12:42:08.407Z,100533.17
2019-01-12T12:47:11.924Z,100521.09
2019-01-12T12:52:15.417Z,100505.59
2019-01-12T12:57:18.881Z,100508.61
2019-01-12T13:02:22.326Z,100491.81
2019-01-12T13:07:25.753Z,100489.22
2019-01-12T13:12:29.379Z,100472.83
2019-01-12T13:17:32.833Z,100472.86
2019-01-12T13:22:36.275Z,100460.76
2019-01-12T13:27:40.168Z,100457.76
2019-01-12T13:32:43.748Z,100440.08
2019-01-12T13:37:47.777Z,100436.19
2019-01-12T13:42:51.225Z,100428.41
2019-01-12T13:47:54.835Z,100428.41
2019-01-12T13:52:58.298Z,100418.92
2019-01-12T13:58:01.719Z,100410.73
2019-01-12T14:03:06.423Z,100407.27
2019-01-12T14:08:09.855Z,100397.77
2019-01-12T14:13:13.290Z,100389.16
2019-01-12T14:18:22.615Z,100381.38
2019-01-12T14:23:22.128Z,100378.36
2019-01-12T14:28:25.537Z,100377.50
2019-01-12T14:33:28.993Z,100372.75
2019-01-12T14:38:33.899Z,100367.99
2019-01-12T14:43:37.459Z,100370.59
2019-01-12T14:48:40.870Z,100372.31
2019-01-12T14:53:44.284Z,100371.45
2019-01-12T14:58:47.742Z,100373.61
2019-01-12T15:03:51.194Z,100361.55
2019-01-12T15:08:54.625Z,100363.27
2019-01-12T15:13:58.055Z,100362.84
2019-01-12T15:19:01.490Z,100357.64
2019-01-12T15:24:05.133Z,100352.04
2019-01-12T15:29:08.628Z,100347.73
2019-01-12T15:34:12.002Z,100342.95
2019-01-12T15:39:15.446Z,100339.50
2019-01-12T15:44:18.883Z,100325.28
2019-01-12T15:49:22.319Z,100327.84
2019-01-12T15:54:25.766Z,100319.64
2019-01-12T15:59:29.201Z,100322.67
2019-01-12T16:04:32.647Z,100311.02
2019-01-12T16:09:36.101Z,100307.15
2019-01-12T16:14:39.504Z,100307.14
2019-01-12T16:19:42.947Z,100300.65
2019-01-12T16:24:46.650Z,100278.61
2019-01-12T16:29:50.094Z,100280.77
2019-01-12T16:34:53.531Z,100269.12
2019-01-12T16:39:56.978Z,100269.98
2019-01-12T16:45:00.422Z,100271.71
2019-01-12T16:50:07.539Z,100277.34
2019-01-12T16:55:13.121Z,100277.77
2019-01-12T17:00:19.229Z,100280.78
2019-01-12T17:05:22.987Z,100282.08
2019-01-12T17:10:26.500Z,100270.86
2019-01-12T17:15:34.673Z,100265.24
2019-01-12T17:20:35.106Z,100266.11
2019-01-12T17:25:38.525Z,100267.84
2019-01-12T17:30:41.952Z,100269.98
2019-01-12T17:35:45.455Z,100269.98
2019-01-12T17:40:48.893Z,100271.72
2019-01-12T17:45:52.314Z,100274.30
2019-01-12T17:50:55.754Z,100276.89
2019-01-12T17:55:59.193Z,100282.52
2019-01-12T18:01:02.639Z,100277.33
2019-01-12T18:06:06.157Z,100282.93
2019-01-12T18:11:09.644Z,100288.11
2019-01-12T18:16:13.099Z,100299.78
2019-01-12T18:21:16.624Z,100306.24
2019-01-12T18:26:20.080Z,100296.74
2019-01-12T18:31:23.578Z,100295.00
2019-01-12T18:36:27.004Z,100289.41
2019-01-12T18:41:30.565Z,100286.80
2019-01-12T18:46:33.981Z,100268.70
2019-01-12T18:51:37.426Z,100255.74
2019-01-12T18:56:40.937Z,100261.81
2019-01-12T19:01:44.414Z,100272.17
2019-01-12T19:06:47.856Z,100270.42
2019-01-12T19:11:51.561Z,100271.73
2019-01-12T19:16:55.835Z,100275.19
2019-01-12T19:22:00.532Z,100271.74
2019-01-12T19:27:04.184Z,100271.73
2019-01-12T19:32:07.629Z,100259.67
2019-01-12T19:37:11.064Z,100256.25
2019-01-12T19:42:15.642Z,100268.75
2019-01-12T19:47:19.201Z,100263.56
2019-01-12T19:52:22.654Z,100261.83
2019-01-12T19:57:26.162Z,100244.98
2019-01-12T20:02:29.675Z,100257.08
2019-01-12T20:07:33.088Z,100253.20
2019-01-12T20:12:36.652Z,100251.07
2019-01-12T20:17:40.110Z,100248.91
2019-01-12T20:22:43.623Z,100252.39
2019-01-12T20:27:47.048Z,100245.05
2019-01-12T20:33:10.082Z,100245.05
2019-01-12T20:38:21.996Z,100245.06
2019-01-12T20:43:30.970Z,100229.94
2019-01-12T20:48:52.238Z,100228.23
2019-01-12T20:54:04.320Z,100230.39
2019-01-12T20:59:28.093Z,100235.99
2019-01-12T21:04:53.339Z,100217.88
2019-01-12T21:10:08.803Z,100220.03
2019-01-12T21:15:15.900Z,100220.03
2019-01-12T21:20:19.296Z,100221.31
2019-01-12T21:25:22.740Z,100223.02
2019-01-12T21:30:26.178Z,100211.83
2019-01-12T21:35:29.600Z,100220.02
2019-01-12T21:40:33.064Z,100226.50
2019-01-12T21:45:36.589Z,100219.58
2019-01-12T21:50:40.103Z,100218.70
2019-01-12T21:55:43.545Z,100213.09
2019-01-12T22:00:47.001Z,100216.98
2019-01-12T22:05:50.429Z,100220.00
2019-01-12T22:10:53.872Z,100216.96
2019-01-12T22:15:57.306Z,100222.14
2019-01-12T22:21:00.735Z,100221.73
2019-01-12T22:26:04.162Z,100225.20
2019-01-12T22:31:07.584Z,100209.20
2019-01-12T22:36:11.031Z,100212.66
2019-01-12T22:41:14.471Z,100204.46
2019-01-12T22:46:17.901Z,100204.46
2019-01-12T22:51:21.389Z,100203.59
2019-01-12T22:56:24.845Z,100198.41
2019-01-12T23:01:31.423Z,100194.06
2019-01-12T23:06:37.735Z,100189.31
2019-01-12T23:11:41.184Z,100186.31
2019-01-12T23:16:44.618Z,100178.11
2019-01-12T23:21:48.359Z,100182.86
2019-01-12T23:26:51.794Z,100183.27
2019-01-12T23:31:55.285Z,100173.39
2019-01-12T23:36:58.725Z,100174.20
2019-01-12T23:42:02.179Z,100178.52
2019-01-12T23:47:05.634Z,100169.04
2019-01-12T23:52:09.061Z,100168.61
2019-01-12T23:57:12.549Z,100168.59
